Time;durP1;ratioP1;P1;durP2;ratioP2;P2;SDS_P1;SDS_P2;PMS_P1;PMS_P2;Temp;Humidity;BMP_temperature;BMP_pressure;BME280_temperature;BME280_humidity;BME280_pressure;Samples;Min_cycle;Max_cycle;Signal;HPM_P1;HPM_P2
2023/01/20 00:01:29;;;;;;;11.80;7.50;;;2.50;99.90;;;;;;4879968;29;20049;-78
2023/01/20 00:03:57;;;;;;;13.20;7.60;;;2.50;99.90;;;;;;4898883;29;20063;-77
2023/01/20 00:06:28;;;;;;;13.88;8.25;;;2.50;99.90;;;;;;4882169;29;20455;-77
2023/01/20 00:08:57;;;;;;;12.18;7.85;;;2.50;99.90;;;;;;4898316;29;20207;-77
2023/01/20 00:11:25;;;;;;;12.60;7.28;;;2.50;99.90;;;;;;4882835;29;20402;-78
2023/01/20 00:14:00;;;;;;;14.48;8.25;;;2.50;99.90;;;;;;4882603;29;20139;-79
2023/01/20 00:16:27;;;;;;;14.77;8.52;;;2.50;99.90;;;;;;4900536;29;20052;-79
2023/01/20 00:18:54;;;;;;;12.10;7.15;;;2.50;99.90;;;;;;4901746;29;20099;-79
2023/01/20 00:21:21;;;;;;;12.02;7.57;;;2.50;99.90;;;;;;4900897;29;20060;-80
2023/01/20 00:23:49;;;;;;;14.73;7.55;;;2.50;99.90;;;;;;4898863;29;20451;-78
2023/01/20 00:26:18;;;;;;;11.52;8.32;;;2.50;99.90;;;;;;4901556;29;20139;-79
2023/01/20 00:28:45;;;;;;;13.38;8.50;;;2.50;99.90;;;;;;4901649;29;20143;-79
2023/01/20 00:31:19;;;;;;;12.52;8.27;;;2.50;99.90;;;;;;4883792;29;20433;-78
2023/01/20 00:33:47;;;;;;;14.18;8.82;;;2.50;99.90;;;;;;4882268;29;20131;-78
2023/01/20 00:36:15;;;;;;;19.27;9.30;;;2.50;99.90;;;;;;4884185;29;20115;-79
2023/01/20 00:38:42;;;;;;;17.00;9.05;;;2.50;99.90;;;;;;4885402;29;20475;-79
2023/01/20 00:41:10;;;;;;;15.77;8.05;;;2.50;99.90;;;;;;4882964;29;20554;-79
2023/01/20 00:43:36;;;;;;;13.93;8.13;;;2.50;99.90;;;;;;4897944;29;20143;-78
2023/01/20 00:46:04;;;;;;;14.05;7.80;;;2.50;99.90;;;;;;4884235;29;20048;-80
2023/01/20 00:48:31;;;;;;;11.65;6.28;;;2.50;99.90;;;;;;4899176;29;20359;-77
2023/01/20 00:50:58;;;;;;;8.15;5.75;;;2.50;99.90;;;;;;4882336;29;20059;-79
2023/01/20 00:53:25;;;;;;;9.57;4.72;;;2.50;99.90;;;;;;4898789;29;20079;-78
2023/01/20 00:55:52;;;;;;;8.73;6.03;;;2.50;99.90;;;;;;4882635;29;20045;-77
2023/01/20 00:58:19;;;;;;;10.32;5.93;;;2.50;99.90;;;;;;4878116;29;20049;-79
2023/01/20 01:00:47;;;;;;;11.07;6.50;;;2.50;99.90;;;;;;4900970;29;20056;-80
2023/01/20 01:03:14;;;;;;;9.23;6.18;;;2.50;99.90;;;;;;4900979;29;20053;-78
2023/01/20 01:05:41;;;;;;;8.40;5.60;;;2.50;99.90;;;;;;4900750;29;20137;-79
2023/01/20 01:08:08;;;;;;;10.95;5.90;;;2.50;99.90;;;;;;4901121;29;20521;-78
2023/01/20 01:10:35;;;;;;;7.40;5.60;;;2.50;99.90;;;;;;4884236;29;20052;-79
2023/01/20 01:13:03;;;;;;;11.82;6.13;;;2.50;99.90;;;;;;4879729;29;20413;-79
2023/01/20 01:15:30;;;;;;;12.02;7.28;;;2.50;99.90;;;;;;4882725;29;20092;-79
2023/01/20 01:17:57;;;;;;;8.30;6.50;;;2.50;99.90;;;;;;4900575;29;20116;-79
2023/01/20 01:20:25;;;;;;;9.27;5.15;;;2.50;99.90;;;;;;4918175;29;20084;-78
2023/01/20 01:22:52;;;;;;;8.52;5.38;;;2.50;99.90;;;;;;4918337;29;20045;-78
2023/01/20 01:25:21;;;;;;;11.20;7.10;;;2.50;99.90;;;;;;4905938;29;20074;-78
2023/01/20 01:27:48;;;;;;;14.73;8.68;;;2.50;99.90;;;;;;4920607;29;20068;-79
2023/01/20 01:30:15;;;;;;;16.65;9.48;;;2.40;99.90;;;;;;4889608;29;20059;-78
2023/01/20 01:32:42;;;;;;;14.80;8.63;;;2.40;99.90;;;;;;4896902;29;20430;-77
2023/01/20 01:35:08;;;;;;;14.75;9.00;;;2.40;99.90;;;;;;4879652;29;20509;-76
2023/01/20 01:37:36;;;;;;;17.17;9.43;;;2.40;99.90;;;;;;4888545;29;20044;-77
2023/01/20 01:40:03;;;;;;;14.48;9.27;;;2.40;99.90;;;;;;4893935;29;20162;-79
2023/01/20 01:42:30;;;;;;;11.57;7.90;;;2.40;99.90;;;;;;4907169;29;20075;-78
2023/01/20 01:45:09;;;;;;;13.23;8.50;;;2.40;99.90;;;;;;4906070;29;20108;-78
2023/01/20 01:47:41;;;;;;;12.80;7.78;;;2.40;99.90;;;;;;4889631;29;20450;-79
2023/01/20 01:50:13;;;;;;;15.88;9.00;;;2.40;99.90;;;;;;4888342;29;20059;-77
2023/01/20 01:52:44;;;;;;;11.38;7.97;;;2.40;99.90;;;;;;4886215;29;20057;-78
2023/01/20 01:55:12;;;;;;;9.98;7.35;;;2.40;99.90;;;;;;4882740;29;20088;-78
2023/01/20 01:57:40;;;;;;;8.38;6.57;;;2.40;99.90;;;;;;4899183;29;20048;-77
2023/01/20 02:00:07;;;;;;;11.13;6.60;;;2.40;99.90;;;;;;4898338;29;20486;-78
2023/01/20 02:02:34;;;;;;;10.45;7.72;;;2.40;99.90;;;;;;4877041;29;20057;-78
2023/01/20 02:05:02;;;;;;;11.23;7.10;;;2.40;99.90;;;;;;4878697;29;20139;-78
2023/01/20 02:07:31;;;;;;;11.18;7.78;;;2.40;99.90;;;;;;4879756;29;20057;-78
2023/01/20 02:09:59;;;;;;;12.50;8.02;;;2.40;99.90;;;;;;4896897;29;20135;-77
2023/01/20 02:12:27;;;;;;;10.60;7.05;;;2.40;99.90;;;;;;4880323;29;20140;-77
2023/01/20 02:14:56;;;;;;;10.27;7.15;;;2.40;99.90;;;;;;4895340;29;20139;-78
2023/01/20 02:17:54;;;;;;;11.48;6.85;;;2.40;99.90;;;;;;4881611;29;20057;-78
2023/01/20 02:20:47;;;;;;;9.75;7.05;;;2.40;99.90;;;;;;4897495;29;20071;-78
2023/01/20 02:23:34;;;;;;;12.15;6.47;;;2.30;99.90;;;;;;4897023;29;20064;-78
2023/01/20 02:26:22;;;;;;;10.55;6.95;;;2.30;99.90;;;;;;4880142;29;20136;-79
2023/01/20 02:29:19;;;;;;;11.07;6.32;;;2.30;99.90;;;;;;4879637;29;20132;-77
2023/01/20 02:32:01;;;;;;;10.07;6.60;;;2.20;99.90;;;;;;4880524;29;20084;-78
2023/01/20 02:34:28;;;;;;;11.18;7.30;;;2.20;99.90;;;;;;4895711;29;20049;-78
2023/01/20 02:37:22;;;;;;;10.23;6.95;;;2.20;99.90;;;;;;4881183;29;20151;-77
2023/01/20 02:40:10;;;;;;;14.77;7.55;;;2.10;99.90;;;;;;4897497;29;20107;-79
2023/01/20 02:42:44;;;;;;;18.80;11.95;;;2.10;99.90;;;;;;4895517;29;20560;-78
2023/01/20 02:45:22;;;;;;;21.65;14.35;;;2.10;99.90;;;;;;4896003;29;20085;-78
2023/01/20 02:48:24;;;;;;;19.90;13.05;;;2.10;99.90;;;;;;4895946;29;20104;-79
2023/01/20 02:51:01;;;;;;;22.35;13.88;;;2.00;99.90;;;;;;4843500;29;20061;-78
2023/01/20 02:53:55;;;;;;;24.98;15.85;;;2.00;99.90;;;;;;4890510;29;20112;-78
2023/01/20 02:56:25;;;;;;;22.67;15.63;;;2.00;99.90;;;;;;4887418;29;20116;-79
2023/01/20 02:59:07;;;;;;;25.00;15.43;;;1.90;99.90;;;;;;4894147;29;20055;-78
2023/01/20 03:01:50;;;;;;;25.90;15.50;;;1.90;99.90;;;;;;4878938;29;20595;-77
2023/01/20 03:04:23;;;;;;;23.35;15.82;;;1.90;99.90;;;;;;4879973;29;20056;-77
2023/01/20 03:06:53;;;;;;;23.23;16.00;;;1.90;99.90;;;;;;4897624;29;20061;-78
2023/01/20 03:09:34;;;;;;;26.58;16.88;;;1.80;99.90;;;;;;4891743;29;20066;-77
2023/01/20 03:12:09;;;;;;;24.70;17.15;;;1.80;99.90;;;;;;4878990;29;20132;-78
2023/01/20 03:14:36;;;;;;;28.02;16.48;;;1.80;99.90;;;;;;4891497;29;20052;-78
2023/01/20 03:17:03;;;;;;;24.58;16.42;;;1.80;99.90;;;;;;4881504;29;20109;-78
2023/01/20 03:19:30;;;;;;;25.25;16.52;;;1.80;99.90;;;;;;4900353;29;20136;-78
2023/01/20 03:21:57;;;;;;;25.08;16.10;;;1.80;99.90;;;;;;4900474;29;20090;-78
2023/01/20 03:24:28;;;;;;;21.25;15.15;;;1.80;99.90;;;;;;4900769;29;20128;-78
2023/01/20 03:26:55;;;;;;;21.50;14.02;;;1.80;99.90;;;;;;4900190;29;20481;-77
2023/01/20 03:29:22;;;;;;;25.42;15.57;;;1.80;99.90;;;;;;4884806;29;20061;-78
2023/01/20 03:31:56;;;;;;;23.67;16.13;;;1.80;99.90;;;;;;4900883;29;20053;-79
2023/01/20 03:34:25;;;;;;;20.75;13.30;;;1.90;99.90;;;;;;4896923;29;20442;-78
2023/01/20 03:36:53;;;;;;;29.00;15.68;;;1.90;99.90;;;;;;4897101;29;20343;-78
2023/01/20 03:39:22;;;;;;;23.25;15.93;;;1.90;99.90;;;;;;4897559;29;20088;-78
2023/01/20 03:42:09;;;;;;;23.90;16.40;;;1.90;99.90;;;;;;4881638;29;20052;-79
2023/01/20 03:44:51;;;;;;;23.40;16.13;;;1.90;99.90;;;;;;4881425;29;20064;-78
2023/01/20 03:47:41;;;;;;;26.45;17.35;;;1.90;99.90;;;;;;4883639;29;20060;-79
2023/01/20 03:50:46;;;;;;;26.73;17.65;;;1.90;99.90;;;;;;4899080;29;20056;-78
2023/01/20 03:53:34;;;;;;;27.40;17.02;;;1.90;99.90;;;;;;4879619;29;20076;-79
2023/01/20 03:56:30;;;;;;;27.25;16.95;;;1.90;99.90;;;;;;4883601;29;20447;-79
2023/01/20 03:59:00;;;;;;;25.20;16.15;;;1.90;99.90;;;;;;4882834;29;20175;-79
2023/01/20 04:01:34;;;;;;;24.45;15.82;;;1.90;99.90;;;;;;4894497;29;20053;-78
2023/01/20 04:04:04;;;;;;;21.02;14.45;;;1.90;99.90;;;;;;4899353;29;20449;-79
2023/01/20 04:06:32;;;;;;;21.40;13.90;;;1.90;99.90;;;;;;4896035;29;20704;-78
2023/01/20 04:09:08;;;;;;;22.30;13.05;;;1.90;99.90;;;;;;4893456;29;20060;-78
2023/01/20 04:11:35;;;;;;;17.83;11.30;;;1.90;99.90;;;;;;4898298;29;20521;-78
2023/01/20 04:14:02;;;;;;;19.15;11.90;;;1.80;99.90;;;;;;4886089;29;20061;-78
2023/01/20 04:16:29;;;;;;;19.77;11.75;;;1.90;99.90;;;;;;4901608;29;20495;-77
2023/01/20 04:18:55;;;;;;;15.32;11.05;;;1.80;99.90;;;;;;4912643;29;20049;-78
2023/01/20 04:21:44;;;;;;;13.90;10.48;;;1.80;99.90;;;;;;4899309;29;20068;-78
2023/01/20 04:24:18;;;;;;;17.00;12.02;;;1.90;99.90;;;;;;4883406;29;20060;-78
2023/01/20 04:26:45;;;;;;;18.02;12.27;;;1.90;99.90;;;;;;4881458;29;20057;-77
2023/01/20 04:29:12;;;;;;;18.08;10.57;;;1.80;99.90;;;;;;4880676;29;20461;-78
2023/01/20 04:31:39;;;;;;;17.17;9.57;;;1.90;99.90;;;;;;4881235;29;20547;-78
2023/01/20 04:34:07;;;;;;;12.70;9.07;;;1.90;99.90;;;;;;4899519;29;20559;-78
2023/01/20 04:36:33;;;;;;;13.82;8.85;;;1.90;99.90;;;;;;4900091;29;20060;-78
2023/01/20 04:39:00;;;;;;;12.80;9.48;;;1.90;99.90;;;;;;4883256;29;20521;-78
2023/01/20 04:41:27;;;;;;;16.60;9.23;;;1.90;99.90;;;;;;4882990;29;20451;-77
2023/01/20 04:43:53;;;;;;;14.70;10.13;;;1.90;99.90;;;;;;4876397;29;20143;-77
2023/01/20 04:46:20;;;;;;;16.30;9.00;;;1.90;99.90;;;;;;4901514;29;20406;-78
2023/01/20 04:48:47;;;;;;;15.40;9.77;;;1.90;99.90;;;;;;4903797;29;20049;-79
2023/01/20 04:51:14;;;;;;;14.30;10.02;;;1.90;99.90;;;;;;4902808;29;20156;-78
2023/01/20 04:53:41;;;;;;;12.95;9.32;;;1.90;99.90;;;;;;4886179;29;20087;-78
2023/01/20 04:56:12;;;;;;;15.63;9.63;;;1.90;99.90;;;;;;4885929;29;20057;-78
2023/01/20 04:58:40;;;;;;;15.77;9.23;;;1.90;99.90;;;;;;4899519;29;20048;-79
2023/01/20 05:01:07;;;;;;;12.20;9.10;;;1.90;99.90;;;;;;4880538;29;20116;-78
2023/01/20 05:03:34;;;;;;;14.57;9.13;;;2.00;99.90;;;;;;4898085;29;20503;-78
2023/01/20 05:06:01;;;;;;;17.08;9.82;;;2.00;99.90;;;;;;4899574;29;20084;-78
2023/01/20 05:08:27;;;;;;;14.05;9.45;;;2.00;99.90;;;;;;4879005;29;20463;-78
2023/01/20 05:10:54;;;;;;;14.63;10.10;;;2.00;99.90;;;;;;4877572;29;20072;-77
2023/01/20 05:13:21;;;;;;;14.90;8.73;;;2.00;99.90;;;;;;4892812;29;20480;-78
2023/01/20 05:15:48;;;;;;;12.93;8.85;;;2.00;99.90;;;;;;4897899;29;20144;-78
2023/01/20 05:18:15;;;;;;;12.07;8.30;;;2.00;99.90;;;;;;4882398;29;20048;-78
2023/01/20 05:20:46;;;;;;;11.82;8.65;;;2.00;99.90;;;;;;4899092;29;20053;-78
2023/01/20 05:23:14;;;;;;;15.10;10.45;;;2.00;99.90;;;;;;4901266;29;20413;-77
2023/01/20 05:25:41;;;;;;;15.75;8.88;;;2.00;99.90;;;;;;4904925;29;20499;-78
2023/01/20 05:28:08;;;;;;;14.13;8.65;;;2.00;99.90;;;;;;4890135;29;20160;-78
2023/01/20 05:30:35;;;;;;;11.50;8.13;;;2.00;99.90;;;;;;4903981;29;20084;-78
2023/01/20 05:33:02;;;;;;;16.77;9.15;;;2.00;99.90;;;;;;4876903;29;20105;-77
2023/01/20 05:35:28;;;;;;;14.50;8.10;;;2.00;99.90;;;;;;4902302;29;20112;-78
2023/01/20 05:37:56;;;;;;;13.93;8.98;;;2.00;99.90;;;;;;4891019;29;20155;-78
2023/01/20 05:40:23;;;;;;;16.13;10.73;;;2.10;99.90;;;;;;4906289;29;20045;-78
2023/01/20 05:42:49;;;;;;;19.60;10.77;;;2.00;99.90;;;;;;4890589;29;20079;-78
2023/01/20 05:45:16;;;;;;;15.25;9.48;;;2.10;99.90;;;;;;4890883;29;20052;-78
2023/01/20 05:47:43;;;;;;;13.30;8.93;;;2.00;99.90;;;;;;4887757;29;20091;-77
2023/01/20 05:50:10;;;;;;;14.30;9.48;;;2.10;99.90;;;;;;4905771;29;20068;-78
2023/01/20 05:52:37;;;;;;;18.10;11.10;;;2.00;99.90;;;;;;4891781;29;20052;-78
2023/01/20 05:55:04;;;;;;;16.20;11.68;;;2.10;99.90;;;;;;4892936;29;20078;-78
2023/01/20 05:57:31;;;;;;;18.55;11.50;;;2.10;99.90;;;;;;4906721;29;20048;-78
2023/01/20 05:59:58;;;;;;;16.23;10.88;;;2.00;99.90;;;;;;4896192;29;20049;-79
2023/01/20 06:02:25;;;;;;;17.63;11.18;;;2.00;99.90;;;;;;4898919;29;20143;-78
2023/01/20 06:04:52;;;;;;;14.30;9.93;;;2.00;99.90;;;;;;4879632;29;20089;-79
2023/01/20 06:07:18;;;;;;;14.02;9.60;;;2.10;99.90;;;;;;4891262;29;20057;-79
2023/01/20 06:09:45;;;;;;;15.63;10.23;;;2.00;99.90;;;;;;4876173;29;20080;-77
2023/01/20 06:12:12;;;;;;;17.65;10.50;;;2.00;99.90;;;;;;4897019;29;20116;-79
2023/01/20 06:14:39;;;;;;;13.23;9.40;;;2.00;99.90;;;;;;4918405;29;20049;-78
2023/01/20 06:17:05;;;;;;;13.40;8.80;;;2.00;99.90;;;;;;4918057;29;20100;-78
2023/01/20 06:19:32;;;;;;;19.52;13.13;;;2.00;99.90;;;;;;4913246;29;20067;-77
2023/01/20 06:21:59;;;;;;;19.58;13.40;;;2.00;99.90;;;;;;4903623;29;20076;-77
2023/01/20 06:24:26;;;;;;;21.27;13.75;;;2.00;99.90;;;;;;4879749;29;20044;-78
2023/01/20 06:26:52;;;;;;;20.88;13.68;;;2.00;99.90;;;;;;4878582;29;20143;-78
2023/01/20 06:29:20;;;;;;;24.48;14.68;;;2.00;99.90;;;;;;4880294;29;20060;-78
2023/01/20 06:31:46;;;;;;;21.95;13.20;;;1.90;99.90;;;;;;4897968;29;20061;-78
2023/01/20 06:34:13;;;;;;;16.55;10.50;;;1.90;99.90;;;;;;4889889;29;20045;-78
2023/01/20 06:36:40;;;;;;;14.25;7.78;;;1.90;99.90;;;;;;4883955;29;20135;-78
2023/01/20 06:39:07;;;;;;;9.93;6.82;;;1.90;99.90;;;;;;4897904;29;20134;-78
2023/01/20 06:41:34;;;;;;;9.77;6.57;;;1.80;99.90;;;;;;4896813;29;20060;-78
2023/01/20 06:44:01;;;;;;;13.95;7.43;;;1.80;99.90;;;;;;4896779;29;20108;-77
2023/01/20 06:46:27;;;;;;;11.35;7.82;;;1.80;99.90;;;;;;4877887;29;20436;-78
2023/01/20 06:48:59;;;;;;;15.13;8.20;;;1.70;99.90;;;;;;4880915;29;20052;-78
2023/01/20 06:51:28;;;;;;;14.27;7.65;;;1.70;99.90;;;;;;4882166;29;20534;-79
2023/01/20 06:53:55;;;;;;;15.63;7.28;;;1.60;99.90;;;;;;4900712;29;20081;-79
2023/01/20 06:56:23;;;;;;;15.63;7.85;;;1.60;99.90;;;;;;4884408;29;20055;-77
2023/01/20 06:58:50;;;;;;;11.60;7.03;;;1.50;99.90;;;;;;4884195;29;20108;-77
2023/01/20 07:01:28;;;;;;;11.38;7.00;;;1.50;99.90;;;;;;4896135;29;20125;-77
2023/01/20 07:03:55;;;;;;;10.80;6.75;;;1.50;99.90;;;;;;4909507;29;20068;-78
2023/01/20 07:06:32;;;;;;;9.30;6.35;;;1.50;99.90;;;;;;4888389;29;20174;-78
2023/01/20 07:08:59;;;;;;;11.55;6.50;;;1.50;99.90;;;;;;4884465;29;20056;-78
2023/01/20 07:11:27;;;;;;;8.20;5.80;;;1.50;99.90;;;;;;4883147;29;20124;-77
2023/01/20 07:13:54;;;;;;;8.45;5.07;;;1.50;99.90;;;;;;4884068;29;20157;-78
2023/01/20 07:16:21;;;;;;;9.70;5.65;;;1.50;99.90;;;;;;4884488;29;20515;-77
2023/01/20 07:18:50;;;;;;;11.30;5.03;;;1.50;99.90;;;;;;4895359;29;20059;-78
2023/01/20 07:21:17;;;;;;;7.38;5.80;;;1.50;99.90;;;;;;4883418;29;20183;-79
2023/01/20 07:23:44;;;;;;;7.80;4.90;;;1.50;99.90;;;;;;4901377;29;20091;-79
2023/01/20 07:26:14;;;;;;;9.40;5.68;;;1.50;99.90;;;;;;4900894;29;20582;-78
2023/01/20 07:28:41;;;;;;;7.18;5.90;;;1.50;99.90;;;;;;4900214;29;20101;-77
2023/01/20 07:31:13;;;;;;;14.98;7.72;;;1.50;99.90;;;;;;4901376;29;20123;-77
2023/01/20 07:33:40;;;;;;;10.70;7.60;;;1.50;99.90;;;;;;4899881;29;20055;-78
2023/01/20 07:36:08;;;;;;;10.95;8.13;;;1.50;99.90;;;;;;4882265;29;20060;-78
2023/01/20 07:38:36;;;;;;;9.93;7.63;;;1.50;99.90;;;;;;4883930;29;20525;-78
2023/01/20 07:41:04;;;;;;;13.07;7.75;;;1.60;99.90;;;;;;4880609;29;20147;-78
2023/01/20 07:43:32;;;;;;;11.00;8.40;;;1.50;99.90;;;;;;4900442;29;20056;-78
2023/01/20 07:46:01;;;;;;;15.80;8.63;;;1.60;99.90;;;;;;4874352;29;20579;-78
2023/01/20 07:48:30;;;;;;;23.60;13.40;;;1.50;99.90;;;;;;4882891;29;20059;-79
2023/01/20 07:51:03;;;;;;;24.00;14.88;;;1.60;99.90;;;;;;4900554;29;20139;-78
2023/01/20 07:53:36;;;;;;;17.75;10.40;;;1.60;99.90;;;;;;4895696;29;20053;-77
2023/01/20 07:56:15;;;;;;;17.08;10.70;;;1.60;99.90;;;;;;4883710;29;20060;-78
2023/01/20 07:58:46;;;;;;;22.02;12.35;;;1.60;99.90;;;;;;4902027;29;20076;-77
2023/01/20 08:01:19;;;;;;;15.82;11.05;;;1.60;99.90;;;;;;4884782;29;20045;-77
2023/01/20 08:03:46;;;;;;;20.15;10.57;;;1.70;99.90;;;;;;4896923;29;20049;-77
2023/01/20 08:06:15;;;;;;;21.60;12.52;;;1.70;99.90;;;;;;4898520;29;20049;-77
2023/01/20 08:08:42;;;;;;;18.48;12.48;;;1.70;99.90;;;;;;4878827;29;20055;-77
2023/01/20 08:11:12;;;;;;;22.85;12.10;;;1.70;99.90;;;;;;4896188;29;20058;-78
2023/01/20 08:13:39;;;;;;;19.35;12.07;;;1.70;99.90;;;;;;4898418;29;20052;-77
2023/01/20 08:16:10;;;;;;;18.80;12.05;;;1.70;99.90;;;;;;4897551;29;20139;-77
2023/01/20 08:18:37;;;;;;;16.55;10.55;;;1.70;99.90;;;;;;4902326;29;20083;-77
2023/01/20 08:21:07;;;;;;;19.83;12.88;;;1.70;99.90;;;;;;4882451;29;20080;-77
2023/01/20 08:23:35;;;;;;;18.15;12.35;;;1.80;99.90;;;;;;4892928;29;20055;-78
2023/01/20 08:26:04;;;;;;;21.33;12.45;;;1.80;99.90;;;;;;4898165;29;20052;-78
2023/01/20 08:28:33;;;;;;;17.98;12.07;;;1.80;99.90;;;;;;4897118;29;20060;-78
2023/01/20 08:31:08;;;;;;;28.60;14.07;;;1.80;99.90;;;;;;4900762;29;20075;-78
2023/01/20 08:33:35;;;;;;;19.58;12.95;;;1.80;99.90;;;;;;4898200;29;20053;-77
2023/01/20 08:36:08;;;;;;;21.08;13.45;;;1.80;99.90;;;;;;4895550;29;20135;-78
2023/01/20 08:38:35;;;;;;;19.83;12.80;;;1.80;99.90;;;;;;4894773;29;20543;-78
2023/01/20 08:41:09;;;;;;;20.98;13.45;;;1.80;99.90;;;;;;4889503;29;20096;-78
2023/01/20 08:43:37;;;;;;;19.05;11.98;;;1.90;99.90;;;;;;4879253;29;20053;-78
2023/01/20 08:46:07;;;;;;;21.88;13.93;;;1.90;99.90;;;;;;4879256;29;20131;-78
2023/01/20 08:48:34;;;;;;;;;;;1.90;99.90;;;;;;4897056;29;20051;-78
2023/01/20 08:51:06;;;;;;;17.05;11.63;;;2.00;99.90;;;;;;4893575;29;19987;-77
2023/01/20 08:53:33;;;;;;;16.73;11.93;;;2.00;99.90;;;;;;4895805;29;20116;-77
2023/01/20 08:56:01;;;;;;;21.95;12.20;;;2.00;99.90;;;;;;4878534;29;20048;-78
2023/01/20 08:58:29;;;;;;;18.45;12.25;;;2.10;99.90;;;;;;4893410;29;20135;-78
2023/01/20 09:00:56;;;;;;;17.30;12.65;;;2.10;99.90;;;;;;4892656;29;20056;-77
2023/01/20 09:03:23;;;;;;;19.63;12.85;;;2.10;99.90;;;;;;4881447;29;20052;-78
2023/01/20 09:05:50;;;;;;;22.85;13.45;;;2.20;99.90;;;;;;4878575;29;20088;-78
2023/01/20 09:08:17;;;;;;;21.70;14.35;;;2.20;99.90;;;;;;4878305;29;20061;-78
2023/01/20 09:10:45;;;;;;;21.65;14.00;;;2.30;99.90;;;;;;4878650;29;20407;-78
2023/01/20 09:13:13;;;;;;;19.92;14.02;;;2.30;99.90;;;;;;4879208;29;20051;-78
2023/01/20 09:15:40;;;;;;;24.55;14.65;;;2.30;99.90;;;;;;4894629;29;20053;-79
2023/01/20 09:18:07;;;;;;;26.95;15.50;;;2.30;99.90;;;;;;4885999;29;20064;-78
2023/01/20 09:20:33;;;;;;;25.25;15.77;;;2.30;99.90;;;;;;4884830;29;20511;-77
2023/01/20 09:23:01;;;;;;;24.38;15.25;;;2.30;99.90;;;;;;4887910;29;20060;-77
2023/01/20 09:25:28;;;;;;;19.33;13.82;;;2.40;99.90;;;;;;4881416;29;20052;-78
2023/01/20 09:27:59;;;;;;;22.40;14.82;;;2.40;99.90;;;;;;4895891;29;20052;-77
2023/01/20 09:30:26;;;;;;;21.65;13.65;;;2.50;99.90;;;;;;4893761;29;20048;-77
2023/01/20 09:32:55;;;;;;;20.98;14.55;;;2.50;99.90;;;;;;4890442;29;20051;-77
2023/01/20 09:35:22;;;;;;;21.80;13.43;;;2.50;99.90;;;;;;4880298;29;20671;-78
2023/01/20 09:43:55;;;;;;;23.65;13.63;;;2.60;99.90;;;;;;4895958;29;20501;-76
2023/01/20 09:46:32;;;;;;;20.63;14.10;;;2.70;99.90;;;;;;4880146;29;20065;-78
2023/01/20 09:55:44;;;;;;;21.23;14.13;;;2.80;99.90;;;;;;4894981;29;20139;-78
2023/01/20 09:58:31;;;;;;;22.70;13.65;;;2.80;99.90;;;;;;4892190;29;20056;-77
2023/01/20 10:01:06;;;;;;;23.33;13.55;;;2.90;99.90;;;;;;4877513;29;20519;-77
2023/01/20 10:03:57;;;;;;;19.90;12.68;;;2.90;99.90;;;;;;4879286;29;20060;-77
2023/01/20 10:06:44;;;;;;;18.65;12.20;;;2.90;99.90;;;;;;4878057;29;20442;-77
2023/01/20 10:09:34;;;;;;;17.95;12.43;;;2.90;99.90;;;;;;4893733;29;20052;-78
2023/01/20 10:12:24;;;;;;;22.17;13.00;;;3.00;99.90;;;;;;4895381;29;20135;-77
2023/01/20 10:15:11;;;;;;;19.15;11.48;;;3.00;99.90;;;;;;4891003;29;20082;-77
2023/01/20 10:17:49;;;;;;;16.98;10.90;;;3.10;99.90;;;;;;4895326;29;20479;-77
2023/01/20 10:20:39;;;;;;;19.52;11.25;;;3.10;99.90;;;;;;4878050;29;20052;-78
2023/01/20 10:23:20;;;;;;;14.88;10.95;;;3.20;99.90;;;;;;4890303;29;20052;-78
2023/01/20 10:25:52;;;;;;;18.55;12.15;;;3.20;99.90;;;;;;4895921;29;20066;-77
2023/01/20 10:28:33;;;;;;;13.60;10.10;;;3.20;99.90;;;;;;4894167;29;20067;-78
2023/01/20 10:31:02;;;;;;;15.35;10.23;;;3.30;99.90;;;;;;4897741;29;20147;-78
2023/01/20 10:33:36;;;;;;;16.05;10.77;;;3.30;99.90;;;;;;4899719;29;20522;-78
2023/01/20 10:36:03;;;;;;;17.65;10.98;;;3.30;99.90;;;;;;4899870;29;20063;-78
2023/01/20 10:38:57;;;;;;;16.25;11.20;;;3.40;99.90;;;;;;4899735;29;20055;-78
2023/01/20 10:41:30;;;;;;;20.73;13.20;;;3.40;99.90;;;;;;4889276;29;20135;-77
2023/01/20 10:43:58;;;;;;;18.55;13.90;;;3.40;99.90;;;;;;4901111;29;20140;-78
2023/01/20 10:46:43;;;;;;;19.80;13.45;;;3.40;99.90;;;;;;4898261;29;20139;-77
2023/01/20 10:49:51;;;;;;;20.25;13.68;;;3.50;99.90;;;;;;4895075;29;20060;-77
2023/01/20 10:52:38;;;;;;;24.58;14.43;;;3.60;99.90;;;;;;4877455;29;20139;-77
2023/01/20 10:55:23;;;;;;;24.10;14.63;;;3.60;99.90;;;;;;4876207;29;20539;-78
2023/01/20 10:57:54;;;;;;;22.38;15.30;;;3.70;99.90;;;;;;4893832;29;20055;-77
2023/01/20 11:00:25;;;;;;;26.23;15.45;;;3.70;99.90;;;;;;4899594;29;20076;-78
2023/01/20 11:02:53;;;;;;;26.60;16.08;;;3.70;99.90;;;;;;4895554;29;20087;-76
2023/01/20 11:05:26;;;;;;;23.83;16.17;;;3.70;99.90;;;;;;4897703;29;20108;-78
2023/01/20 11:07:54;;;;;;;26.05;17.15;;;3.70;99.90;;;;;;4880292;29;20139;-79
2023/01/20 11:10:24;;;;;;;22.48;15.15;;;3.70;99.90;;;;;;4898599;29;20131;-78
2023/01/20 11:12:57;;;;;;;23.00;15.30;;;3.70;99.90;;;;;;4896186;29;20052;-77
2023/01/20 11:15:28;;;;;;;25.90;15.82;;;3.70;99.90;;;;;;4895491;29;20052;-77
2023/01/20 11:18:13;;;;;;;29.10;16.88;;;3.80;99.90;;;;;;4881373;29;20411;-78
2023/01/20 11:21:07;;;;;;;26.95;16.67;;;3.90;99.90;;;;;;4882414;29;20049;-76
2023/01/20 11:23:39;;;;;;;25.45;16.63;;;3.90;99.90;;;;;;4897917;29;20057;-76
2023/01/20 11:26:30;;;;;;;26.15;15.93;;;4.00;99.90;;;;;;4896830;29;20471;-76
2023/01/20 11:29:21;;;;;;;23.25;14.50;;;4.10;99.90;;;;;;4880762;29;20467;-77
2023/01/20 11:31:54;;;;;;;22.63;16.90;;;4.10;99.90;;;;;;4895182;29;20434;-77
2023/01/20 11:34:25;;;;;;;25.02;15.70;;;4.10;99.90;;;;;;4899071;29;20044;-77
2023/01/20 11:37:04;;;;;;;26.30;17.13;;;4.10;99.90;;;;;;4878942;29;20045;-78
2023/01/20 11:39:41;;;;;;;21.58;15.07;;;4.10;99.90;;;;;;4881291;29;20080;-76
2023/01/20 11:42:16;;;;;;;23.98;15.82;;;4.10;99.90;;;;;;4897519;29;20051;-77
2023/01/20 11:44:57;;;;;;;26.75;17.58;;;4.00;99.90;;;;;;4896397;29;20059;-77
2023/01/20 11:47:43;;;;;;;24.95;16.58;;;4.00;99.90;;;;;;4895500;29;20049;-79
2023/01/20 11:50:24;;;;;;;25.20;16.25;;;4.00;99.90;;;;;;4893567;29;20112;-77
2023/01/20 11:52:51;;;;;;;21.50;15.10;;;3.90;99.90;;;;;;4878789;29;20501;-78
2023/01/20 11:55:24;;;;;;;26.23;15.57;;;3.80;99.90;;;;;;4897105;29;20139;-78
2023/01/20 11:57:55;;;;;;;25.50;15.27;;;3.70;99.90;;;;;;4898527;29;20139;-78
2023/01/20 12:00:30;;;;;;;24.42;14.75;;;3.60;99.90;;;;;;4898933;29;20076;-77
2023/01/20 12:03:13;;;;;;;22.35;14.02;;;3.60;99.90;;;;;;4895878;29;20095;-77
2023/01/20 12:06:09;;;;;;;23.10;14.25;;;3.50;99.90;;;;;;4893872;29;20056;-76
2023/01/20 12:09:04;;;;;;;20.90;13.32;;;3.50;99.90;;;;;;4892530;29;20068;-78
2023/01/20 12:11:40;;;;;;;21.48;13.63;;;3.40;99.90;;;;;;4898306;29;20071;-77
2023/01/20 12:14:23;;;;;;;15.45;11.73;;;3.40;99.90;;;;;;4894789;29;20056;-77
2023/01/20 12:17:17;;;;;;;14.13;9.18;;;3.40;99.90;;;;;;4895196;29;20057;-76
2023/01/20 12:20:25;;;;;;;15.02;9.75;;;3.20;99.90;;;;;;4871476;29;20048;-77
2023/01/20 12:23:20;;;;;;;13.45;9.68;;;3.20;99.90;;;;;;4896177;29;20056;-78
2023/01/20 12:26:04;;;;;;;18.15;10.07;;;3.20;99.90;;;;;;4897973;29;20064;-77
2023/01/20 12:28:50;;;;;;;17.20;10.07;;;3.20;99.90;;;;;;4895404;29;20053;-77
2023/01/20 12:31:19;;;;;;;16.35;10.43;;;3.10;99.90;;;;;;4896300;29;20553;-78
2023/01/20 12:33:53;;;;;;;16.05;10.75;;;3.20;99.90;;;;;;4880689;29;20048;-78
2023/01/20 12:36:51;;;;;;;15.95;10.50;;;3.20;99.90;;;;;;4892405;29;20057;-78
2023/01/20 12:39:37;;;;;;;16.02;10.63;;;3.20;99.90;;;;;;4879873;29;20507;-77
2023/01/20 12:42:34;;;;;;;15.48;10.18;;;3.20;99.90;;;;;;4894585;29;20358;-78
2023/01/20 12:45:19;;;;;;;12.63;9.02;;;3.20;99.90;;;;;;4895068;29;20139;-78
2023/01/20 12:48:22;;;;;;;12.20;8.70;;;3.20;99.90;;;;;;4877822;29;20495;-77
2023/01/20 12:50:54;;;;;;;13.32;8.60;;;3.20;99.90;;;;;;4893159;29;20071;-77
2023/01/20 12:53:41;;;;;;;10.75;7.68;;;3.20;99.90;;;;;;4898139;29;20131;-77
2023/01/20 12:56:25;;;;;;;13.05;8.52;;;3.20;99.90;;;;;;4900608;29;20124;-79
2023/01/20 12:59:26;;;;;;;12.90;8.65;;;3.20;99.90;;;;;;4891642;29;20467;-78
2023/01/20 13:02:17;;;;;;;14.98;9.02;;;3.20;99.90;;;;;;4880818;29;20052;-78
2023/01/20 13:05:01;;;;;;;13.20;9.35;;;3.20;99.90;;;;;;4880896;29;20060;-78
2023/01/20 13:07:30;;;;;;;13.77;9.38;;;3.20;99.90;;;;;;4897439;29;20052;-78
2023/01/20 13:10:27;;;;;;;14.20;9.65;;;3.30;99.90;;;;;;4883386;29;20524;-77
2023/01/20 13:13:19;;;;;;;16.42;9.73;;;3.30;99.90;;;;;;4881653;29;20083;-78
2023/01/20 13:16:07;;;;;;;17.83;9.32;;;3.30;99.90;;;;;;4886572;29;20052;-77
2023/01/20 13:18:49;;;;;;;15.10;9.45;;;3.30;99.90;;;;;;4888124;29;20084;-78
2023/01/20 13:21:17;;;;;;;14.23;9.70;;;3.40;99.90;;;;;;4907499;29;20053;-77
2023/01/20 13:23:45;;;;;;;12.57;9.10;;;3.40;99.90;;;;;;4887934;29;20056;-77
2023/01/20 13:26:13;;;;;;;15.27;9.13;;;3.40;99.90;;;;;;4907138;29;20804;-77